createdAt,value
2022-09-23T04:48:02.110Z,100771.22
2022-09-23T05:09:34.686Z,100795.56
2022-09-23T05:12:37.501Z,100789.41
2022-09-23T05:15:46.230Z,100786.72
2022-09-23T05:18:50.187Z,100796.09
2022-09-23T05:21:52.869Z,100797.69
2022-09-23T05:24:55.701Z,100798.41
2022-09-23T05:28:01.619Z,100806.19
2022-09-23T05:31:43.608Z,100798.19
2022-09-23T05:38:31.953Z,100811.56
2022-09-23T05:41:34.778Z,100817.50
2022-09-23T05:44:37.339Z,100810.53
2022-09-23T05:47:40.102Z,100811.13
2022-09-23T05:50:53.576Z,100809.22
2022-09-23T05:53:58.362Z,100806.34
2022-09-23T05:57:04.274Z,100810.66
2022-09-23T06:00:08.778Z,100810.41
2022-09-23T06:03:15.999Z,100806.66
2022-09-23T06:06:24.810Z,100813.47
2022-09-23T06:13:12.834Z,100818.78
2022-09-23T06:27:23.498Z,100820.84
2022-09-23T06:30:27.029Z,100825.53
2022-09-23T06:33:36.641Z,100823.94
2022-09-23T06:36:45.855Z,100828.62
2022-09-23T06:39:58.335Z,100833.63
2022-09-23T06:43:02.324Z,100833.84
2022-09-23T06:49:42.554Z,100828.53
2022-09-23T06:56:24.759Z,100831.66
2022-09-23T06:59:27.659Z,100830.31
2022-09-23T07:02:30.402Z,100825.66
2022-09-23T07:05:33.185Z,100826.91
2022-09-23T07:08:36.112Z,100833.97
2022-09-23T07:11:39.758Z,100828.44
2022-09-23T07:14:42.280Z,100824.13
2022-09-23T07:17:45.174Z,100826.87
2022-09-23T07:20:48.301Z,100832.59
2022-09-23T07:23:52.140Z,100835.91
2022-09-23T07:26:55.624Z,100836.41
2022-09-23T07:29:58.861Z,100840.19
2022-09-23T07:33:13.662Z,100837.50
2022-09-23T07:36:24.602Z,100840.25
2022-09-23T07:43:10.984Z,100833.87
2022-09-23T07:49:58.599Z,100840.59
2022-09-23T07:53:03.078Z,100829.94
2022-09-23T07:56:06.698Z,100834.25
2022-09-23T07:59:15.482Z,100835.03
2022-09-23T08:16:49.041Z,100830.19
2022-09-23T08:23:39.249Z,100820.13
2022-09-23T08:26:43.223Z,100816.41
2022-09-23T08:29:45.828Z,100819.28
2022-09-23T08:32:50.923Z,100811.03
2022-09-23T08:35:59.684Z,100806.09
2022-09-23T08:39:02.609Z,100809.63
2022-09-23T08:42:05.040Z,100815.28
2022-09-23T08:45:27.463Z,100810.63
2022-09-23T08:48:38.635Z,100809.09
2022-09-23T08:51:46.589Z,100817.75
2022-09-23T08:54:55.271Z,100808.19
2022-09-23T08:58:25.846Z,100810.69
2022-09-23T09:01:42.721Z,100807.84
2022-09-23T09:23:38.749Z,100797.47
2022-09-23T09:26:41.692Z,100791.97
2022-09-23T09:33:31.842Z,100790.44
2022-09-23T09:36:36.024Z,100788.94
2022-09-23T09:39:38.564Z,100786.03
2022-09-23T09:46:41.629Z,100783.47
2022-09-23T09:50:03.725Z,100781.56
2022-09-23T09:53:27.503Z,100777.50
2022-09-23T10:03:33.240Z,100771.59
2022-09-23T10:06:36.598Z,100759.13
2022-09-23T10:09:47.596Z,100754.50
2022-09-23T10:16:34.550Z,100752.94
2022-09-23T10:19:43.920Z,100748.22
2022-09-23T10:22:47.084Z,100753.56
2022-09-23T10:25:58.674Z,100757.66
2022-09-23T10:29:19.080Z,100756.63
2022-09-23T10:32:33.692Z,100761.34
2022-09-23T13:01:40.935Z,100619.25
2022-09-23T13:05:15.578Z,100616.84
2022-09-23T13:08:24.698Z,100609.34
2022-09-23T13:11:32.512Z,100610.78
2022-09-23T13:14:37.916Z,100614.91
2022-09-23T13:17:41.070Z,100616.19
2022-09-23T13:20:45.915Z,100610.88
2022-09-23T13:24:31.203Z,100604.94
2022-09-23T13:27:35.540Z,100606.03
2022-09-23T13:30:48.375Z,100608.97
2022-09-23T13:34:01.906Z,100612.66
2022-09-23T13:37:23.120Z,100607.78
2022-09-23T13:40:28.518Z,100603.53
2022-09-23T14:02:57.568Z,100597.00
2022-09-23T14:06:02.345Z,100588.19
2022-09-23T14:09:06.478Z,100590.97
2022-09-23T14:12:11.070Z,100599.34
2022-09-23T14:15:18.731Z,100590.78
2022-09-23T14:18:30.663Z,100592.84
2022-09-23T14:25:18.888Z,100575.87
2022-09-23T14:28:25.117Z,100578.75
2022-09-23T14:31:28.067Z,100575.87
2022-09-23T14:34:42.628Z,100577.00
2022-09-23T14:38:08.052Z,100576.75
2022-09-23T14:41:26.266Z,100573.16
2022-09-23T14:44:47.223Z,100570.56
2022-09-23T14:47:53.749Z,100574.81
2022-09-23T14:50:59.219Z,100568.59
2022-09-23T14:54:50.779Z,100564.38
2022-09-23T14:58:02.034Z,100559.88
2022-09-23T15:01:32.892Z,100558.63
2022-09-23T15:04:36.647Z,100556.53
2022-09-23T15:07:40.043Z,100554.31
2022-09-23T15:10:42.556Z,100559.00
2022-09-23T15:13:51.244Z,100555.87
